Terminal Aerodrome Forecast
Issued by NWS

Home | Current Version | Previous Version | Graphics & Text | Print | Product List | Glossary On
Versions: 1 2 3 4 5 6 7 8 9 10 11 12 13 14 15 16 17 18
664
FTUS41 KCLE 210530
TAFFDY
TAF
KFDY 210530Z 2106/2206 16004KT P6SM SKC
     FM210900 19004KT 6SM BR SCT060
     FM211500 23009KT P6SM SCT050
     FM220500 21006KT 6SM BR SCT050 BKN120=

USA.gov is the U.S. government's official web portal to all federal, state and local government web resources and services.